sensor_id;sensor_type;location;lat;lon;timestamp;P1;durP1;ratioP1;P2;durP2;ratioP2
9904;SDS011;4991;43.566;27.820;2022-12-07T00:01:29;0.10;;;0.10;;
9904;SDS011;4991;43.566;27.820;2022-12-07T00:03:57;0.10;;;0.10;;
9904;SDS011;4991;43.566;27.820;2022-12-07T00:06:38;0.10;;;0.10;;
9904;SDS011;4991;43.566;27.820;2022-12-07T00:09:05;0.10;;;0.10;;
9904;SDS011;4991;43.566;27.820;2022-12-07T00:11:33;0.10;;;0.10;;
9904;SDS011;4991;43.566;27.820;2022-12-07T00:13:59;0.10;;;0.10;;
9904;SDS011;4991;43.566;27.820;2022-12-07T00:16:28;0.10;;;0.10;;
9904;SDS011;4991;43.566;27.820;2022-12-07T00:18:56;0.10;;;0.10;;
9904;SDS011;4991;43.566;27.820;2022-12-07T00:21:26;0.00;;;0.00;;
9904;SDS011;4991;43.566;27.820;2022-12-07T00:23:53;0.10;;;0.10;;
9904;SDS011;4991;43.566;27.820;2022-12-07T00:26:22;0.10;;;0.10;;
9904;SDS011;4991;43.566;27.820;2022-12-07T00:28:56;0.10;;;0.10;;
9904;SDS011;4991;43.566;27.820;2022-12-07T00:31:24;0.10;;;0.10;;
9904;SDS011;4991;43.566;27.820;2022-12-07T00:33:53;0.10;;;0.10;;
9904;SDS011;4991;43.566;27.820;2022-12-07T00:36:20;0.10;;;0.10;;
9904;SDS011;4991;43.566;27.820;2022-12-07T00:38:47;0.10;;;0.10;;
9904;SDS011;4991;43.566;27.820;2022-12-07T00:41:14;0.10;;;0.10;;
9904;SDS011;4991;43.566;27.820;2022-12-07T00:43:42;0.10;;;0.10;;
9904;SDS011;4991;43.566;27.820;2022-12-07T00:46:09;0.10;;;0.10;;
9904;SDS011;4991;43.566;27.820;2022-12-07T00:48:35;0.10;;;0.10;;
9904;SDS011;4991;43.566;27.820;2022-12-07T00:51:01;0.10;;;0.10;;
9904;SDS011;4991;43.566;27.820;2022-12-07T00:53:28;0.10;;;0.10;;
9904;SDS011;4991;43.566;27.820;2022-12-07T00:55:54;0.10;;;0.10;;
9904;SDS011;4991;43.566;27.820;2022-12-07T00:58:21;0.10;;;0.10;;
9904;SDS011;4991;43.566;27.820;2022-12-07T01:00:48;0.10;;;0.10;;
9904;SDS011;4991;43.566;27.820;2022-12-07T01:03:14;0.10;;;0.10;;
9904;SDS011;4991;43.566;27.820;2022-12-07T01:05:48;0.00;;;0.00;;
9904;SDS011;4991;43.566;27.820;2022-12-07T01:08:15;0.10;;;0.10;;
9904;SDS011;4991;43.566;27.820;2022-12-07T01:10:41;0.10;;;0.10;;
9904;SDS011;4991;43.566;27.820;2022-12-07T01:13:07;0.00;;;0.00;;
9904;SDS011;4991;43.566;27.820;2022-12-07T01:15:32;0.10;;;0.10;;
9904;SDS011;4991;43.566;27.820;2022-12-07T01:17:58;0.10;;;0.10;;
9904;SDS011;4991;43.566;27.820;2022-12-07T01:20:23;0.00;;;0.00;;
9904;SDS011;4991;43.566;27.820;2022-12-07T01:22:49;0.03;;;0.03;;
9904;SDS011;4991;43.566;27.820;2022-12-07T01:25:15;5.27;;;4.80;;
9904;SDS011;4991;43.566;27.820;2022-12-07T01:27:41;0.00;;;0.00;;
9904;SDS011;4991;43.566;27.820;2022-12-07T01:30:06;0.10;;;0.10;;
9904;SDS011;4991;43.566;27.820;2022-12-07T01:32:33;0.10;;;0.10;;
9904;SDS011;4991;43.566;27.820;2022-12-07T01:34:59;0.10;;;0.10;;
9904;SDS011;4991;43.566;27.820;2022-12-07T01:37:24;0.10;;;0.10;;
9904;SDS011;4991;43.566;27.820;2022-12-07T01:39:50;0.10;;;0.10;;
9904;SDS011;4991;43.566;27.820;2022-12-07T01:42:17;0.10;;;0.10;;
9904;SDS011;4991;43.566;27.820;2022-12-07T01:47:43;0.10;;;0.10;;
9904;SDS011;4991;43.566;27.820;2022-12-07T01:50:18;0.10;;;0.10;;
9904;SDS011;4991;43.566;27.820;2022-12-07T01:52:45;0.10;;;0.10;;
9904;SDS011;4991;43.566;27.820;2022-12-07T01:55:15;0.07;;;0.07;;
9904;SDS011;4991;43.566;27.820;2022-12-07T01:57:45;0.00;;;0.00;;
9904;SDS011;4991;43.566;27.820;2022-12-07T02:00:14;0.10;;;0.10;;
9904;SDS011;4991;43.566;27.820;2022-12-07T02:05:16;0.10;;;0.10;;
9904;SDS011;4991;43.566;27.820;2022-12-07T02:07:43;0.10;;;0.10;;
9904;SDS011;4991;43.566;27.820;2022-12-07T02:10:18;0.10;;;0.10;;
9904;SDS011;4991;43.566;27.820;2022-12-07T02:12:46;0.10;;;0.10;;
9904;SDS011;4991;43.566;27.820;2022-12-07T02:15:15;0.10;;;0.10;;
9904;SDS011;4991;43.566;27.820;2022-12-07T02:20:31;0.10;;;0.10;;
9904;SDS011;4991;43.566;27.820;2022-12-07T02:23:38;0.10;;;0.10;;
9904;SDS011;4991;43.566;27.820;2022-12-07T02:31:25;0.10;;;0.10;;
9904;SDS011;4991;43.566;27.820;2022-12-07T02:34:07;0.10;;;0.10;;
9904;SDS011;4991;43.566;27.820;2022-12-07T02:36:42;0.10;;;0.10;;
9904;SDS011;4991;43.566;27.820;2022-12-07T02:39:15;0.00;;;0.00;;
9904;SDS011;4991;43.566;27.820;2022-12-07T02:41:52;0.10;;;0.10;;
9904;SDS011;4991;43.566;27.820;2022-12-07T02:44:23;0.20;;;0.20;;
9904;SDS011;4991;43.566;27.820;2022-12-07T02:46:57;0.10;;;0.10;;
9904;SDS011;4991;43.566;27.820;2022-12-07T02:49:27;0.10;;;0.10;;
9904;SDS011;4991;43.566;27.820;2022-12-07T02:51:54;0.10;;;0.10;;
9904;SDS011;4991;43.566;27.820;2022-12-07T02:54:20;1.33;;;1.30;;
9904;SDS011;4991;43.566;27.820;2022-12-07T02:59:27;0.10;;;0.10;;
9904;SDS011;4991;43.566;27.820;2022-12-07T03:02:25;0.10;;;0.10;;
9904;SDS011;4991;43.566;27.820;2022-12-07T03:05:12;0.00;;;0.00;;
9904;SDS011;4991;43.566;27.820;2022-12-07T03:13:28;0.07;;;0.07;;
9904;SDS011;4991;43.566;27.820;2022-12-07T03:18:42;0.10;;;0.10;;
9904;SDS011;4991;43.566;27.820;2022-12-07T03:21:27;0.10;;;0.10;;
9904;SDS011;4991;43.566;27.820;2022-12-07T03:24:04;0.10;;;0.10;;
9904;SDS011;4991;43.566;27.820;2022-12-07T03:26:36;0.10;;;0.10;;
9904;SDS011;4991;43.566;27.820;2022-12-07T03:29:08;0.10;;;0.10;;
9904;SDS011;4991;43.566;27.820;2022-12-07T03:31:41;0.10;;;0.10;;
9904;SDS011;4991;43.566;27.820;2022-12-07T03:34:19;0.10;;;0.10;;
9904;SDS011;4991;43.566;27.820;2022-12-07T03:42:10;0.10;;;0.10;;
9904;SDS011;4991;43.566;27.820;2022-12-07T03:44:36;0.10;;;0.10;;
9904;SDS011;4991;43.566;27.820;2022-12-07T03:49:54;0.10;;;0.10;;
9904;SDS011;4991;43.566;27.820;2022-12-07T03:52:26;0.10;;;0.10;;
9904;SDS011;4991;43.566;27.820;2022-12-07T03:57:39;0.10;;;0.10;;
9904;SDS011;4991;43.566;27.820;2022-12-07T04:00:08;0.10;;;0.10;;
9904;SDS011;4991;43.566;27.820;2022-12-07T04:02:35;0.10;;;0.10;;
9904;SDS011;4991;43.566;27.820;2022-12-07T04:05:02;0.10;;;0.10;;
9904;SDS011;4991;43.566;27.820;2022-12-07T04:07:28;0.10;;;0.10;;
9904;SDS011;4991;43.566;27.820;2022-12-07T04:09:53;0.10;;;0.10;;
9904;SDS011;4991;43.566;27.820;2022-12-07T04:12:20;0.10;;;0.10;;
9904;SDS011;4991;43.566;27.820;2022-12-07T04:14:46;0.10;;;0.10;;
9904;SDS011;4991;43.566;27.820;2022-12-07T04:17:12;0.00;;;0.00;;
9904;SDS011;4991;43.566;27.820;2022-12-07T04:19:38;0.03;;;0.03;;
9904;SDS011;4991;43.566;27.820;2022-12-07T04:22:03;0.10;;;0.10;;
9904;SDS011;4991;43.566;27.820;2022-12-07T04:24:30;0.10;;;0.10;;
9904;SDS011;4991;43.566;27.820;2022-12-07T04:26:56;0.10;;;0.10;;
9904;SDS011;4991;43.566;27.820;2022-12-07T04:29:22;0.17;;;0.17;;
9904;SDS011;4991;43.566;27.820;2022-12-07T04:31:49;0.10;;;0.10;;
9904;SDS011;4991;43.566;27.820;2022-12-07T04:34:15;0.10;;;0.10;;
9904;SDS011;4991;43.566;27.820;2022-12-07T04:36:41;0.10;;;0.10;;
9904;SDS011;4991;43.566;27.820;2022-12-07T04:39:08;0.10;;;0.10;;
9904;SDS011;4991;43.566;27.820;2022-12-07T04:41:42;0.13;;;0.13;;
9904;SDS011;4991;43.566;27.820;2022-12-07T04:44:08;0.10;;;0.10;;
9904;SDS011;4991;43.566;27.820;2022-12-07T04:46:33;0.10;;;0.10;;
9904;SDS011;4991;43.566;27.820;2022-12-07T04:48:59;0.10;;;0.10;;
9904;SDS011;4991;43.566;27.820;2022-12-07T04:51:25;0.10;;;0.10;;
9904;SDS011;4991;43.566;27.820;2022-12-07T04:53:53;0.10;;;0.10;;
9904;SDS011;4991;43.566;27.820;2022-12-07T04:56:20;0.10;;;0.10;;
9904;SDS011;4991;43.566;27.820;2022-12-07T04:58:46;0.10;;;0.10;;
9904;SDS011;4991;43.566;27.820;2022-12-07T05:01:13;0.10;;;0.10;;
9904;SDS011;4991;43.566;27.820;2022-12-07T05:03:40;0.10;;;0.10;;
9904;SDS011;4991;43.566;27.820;2022-12-07T05:06:06;0.10;;;0.10;;
9904;SDS011;4991;43.566;27.820;2022-12-07T05:08:33;0.10;;;0.10;;
9904;SDS011;4991;43.566;27.820;2022-12-07T05:11:00;0.10;;;0.10;;
9904;SDS011;4991;43.566;27.820;2022-12-07T05:13:25;0.10;;;0.10;;
9904;SDS011;4991;43.566;27.820;2022-12-07T05:15:51;0.10;;;0.10;;
9904;SDS011;4991;43.566;27.820;2022-12-07T05:18:17;0.10;;;0.10;;
9904;SDS011;4991;43.566;27.820;2022-12-07T05:20:43;0.10;;;0.10;;
9904;SDS011;4991;43.566;27.820;2022-12-07T05:23:10;0.10;;;0.10;;
9904;SDS011;4991;43.566;27.820;2022-12-07T05:25:36;0.10;;;0.10;;
9904;SDS011;4991;43.566;27.820;2022-12-07T05:28:02;0.10;;;0.10;;
9904;SDS011;4991;43.566;27.820;2022-12-07T05:30:28;0.10;;;0.10;;
9904;SDS011;4991;43.566;27.820;2022-12-07T05:32:55;0.10;;;0.10;;
9904;SDS011;4991;43.566;27.820;2022-12-07T05:35:21;0.10;;;0.10;;
9904;SDS011;4991;43.566;27.820;2022-12-07T05:37:46;0.10;;;0.10;;
9904;SDS011;4991;43.566;27.820;2022-12-07T05:40:12;0.10;;;0.10;;
9904;SDS011;4991;43.566;27.820;2022-12-07T05:42:40;0.30;;;0.30;;
9904;SDS011;4991;43.566;27.820;2022-12-07T05:45:06;0.00;;;0.00;;
9904;SDS011;4991;43.566;27.820;2022-12-07T05:47:32;0.03;;;0.03;;
9904;SDS011;4991;43.566;27.820;2022-12-07T05:49:58;0.10;;;0.10;;
9904;SDS011;4991;43.566;27.820;2022-12-07T05:52:24;0.10;;;0.10;;
9904;SDS011;4991;43.566;27.820;2022-12-07T05:54:49;0.33;;;0.33;;
9904;SDS011;4991;43.566;27.820;2022-12-07T05:57:15;0.10;;;0.10;;
9904;SDS011;4991;43.566;27.820;2022-12-07T05:59:41;0.10;;;0.10;;
9904;SDS011;4991;43.566;27.820;2022-12-07T06:02:08;0.10;;;0.10;;
9904;SDS011;4991;43.566;27.820;2022-12-07T06:04:36;0.10;;;0.10;;
9904;SDS011;4991;43.566;27.820;2022-12-07T06:07:04;0.10;;;0.10;;
9904;SDS011;4991;43.566;27.820;2022-12-07T06:09:30;0.10;;;0.10;;
9904;SDS011;4991;43.566;27.820;2022-12-07T06:11:56;0.10;;;0.10;;
9904;SDS011;4991;43.566;27.820;2022-12-07T06:14:42;0.10;;;0.10;;
9904;SDS011;4991;43.566;27.820;2022-12-07T06:17:07;1.07;;;1.07;;
9904;SDS011;4991;43.566;27.820;2022-12-07T06:19:35;0.10;;;0.10;;
9904;SDS011;4991;43.566;27.820;2022-12-07T06:22:01;0.10;;;0.10;;
9904;SDS011;4991;43.566;27.820;2022-12-07T06:24:30;0.10;;;0.10;;
9904;SDS011;4991;43.566;27.820;2022-12-07T06:26:56;0.10;;;0.10;;
9904;SDS011;4991;43.566;27.820;2022-12-07T06:29:22;0.10;;;0.10;;
9904;SDS011;4991;43.566;27.820;2022-12-07T06:31:48;0.10;;;0.10;;
9904;SDS011;4991;43.566;27.820;2022-12-07T06:34:16;0.10;;;0.10;;
9904;SDS011;4991;43.566;27.820;2022-12-07T06:36:44;0.10;;;0.10;;
9904;SDS011;4991;43.566;27.820;2022-12-07T06:39:10;0.17;;;0.17;;
9904;SDS011;4991;43.566;27.820;2022-12-07T06:41:37;0.10;;;0.10;;
9904;SDS011;4991;43.566;27.820;2022-12-07T06:44:04;0.93;;;0.93;;
9904;SDS011;4991;43.566;27.820;2022-12-07T06:46:30;0.10;;;0.10;;
9904;SDS011;4991;43.566;27.820;2022-12-07T06:48:56;0.10;;;0.10;;
9904;SDS011;4991;43.566;27.820;2022-12-07T06:51:22;0.20;;;0.20;;
9904;SDS011;4991;43.566;27.820;2022-12-07T06:53:48;0.10;;;0.10;;
9904;SDS011;4991;43.566;27.820;2022-12-07T06:56:13;0.10;;;0.10;;
9904;SDS011;4991;43.566;27.820;2022-12-07T06:58:39;0.20;;;0.20;;
9904;SDS011;4991;43.566;27.820;2022-12-07T07:01:13;0.10;;;0.10;;
9904;SDS011;4991;43.566;27.820;2022-12-07T07:03:40;0.20;;;0.20;;
9904;SDS011;4991;43.566;27.820;2022-12-07T07:06:07;0.10;;;0.10;;
9904;SDS011;4991;43.566;27.820;2022-12-07T07:08:34;0.10;;;0.10;;
9904;SDS011;4991;43.566;27.820;2022-12-07T07:11:01;0.10;;;0.10;;
9904;SDS011;4991;43.566;27.820;2022-12-07T07:13:27;0.10;;;0.10;;
9904;SDS011;4991;43.566;27.820;2022-12-07T07:15:53;0.10;;;0.10;;
9904;SDS011;4991;43.566;27.820;2022-12-07T07:18:19;0.10;;;0.10;;
9904;SDS011;4991;43.566;27.820;2022-12-07T07:20:45;0.10;;;0.10;;
9904;SDS011;4991;43.566;27.820;2022-12-07T07:23:11;0.30;;;0.30;;
9904;SDS011;4991;43.566;27.820;2022-12-07T07:25:36;0.10;;;0.10;;
9904;SDS011;4991;43.566;27.820;2022-12-07T07:28:02;0.10;;;0.10;;
9904;SDS011;4991;43.566;27.820;2022-12-07T07:30:28;0.10;;;0.10;;
9904;SDS011;4991;43.566;27.820;2022-12-07T07:32:58;0.10;;;0.10;;
9904;SDS011;4991;43.566;27.820;2022-12-07T07:35:24;0.20;;;0.20;;
9904;SDS011;4991;43.566;27.820;2022-12-07T07:37:50;0.20;;;0.20;;
9904;SDS011;4991;43.566;27.820;2022-12-07T07:40:16;0.20;;;0.20;;
9904;SDS011;4991;43.566;27.820;2022-12-07T07:42:42;0.10;;;0.10;;
9904;SDS011;4991;43.566;27.820;2022-12-07T07:45:08;0.10;;;0.10;;
9904;SDS011;4991;43.566;27.820;2022-12-07T07:47:34;0.20;;;0.20;;
9904;SDS011;4991;43.566;27.820;2022-12-07T07:49:59;0.10;;;0.10;;
9904;SDS011;4991;43.566;27.820;2022-12-07T07:52:25;0.20;;;0.20;;
9904;SDS011;4991;43.566;27.820;2022-12-07T07:54:50;0.10;;;0.10;;
9904;SDS011;4991;43.566;27.820;2022-12-07T07:57:16;0.20;;;0.20;;
9904;SDS011;4991;43.566;27.820;2022-12-07T07:59:42;0.20;;;0.20;;
9904;SDS011;4991;43.566;27.820;2022-12-07T08:02:14;0.20;;;0.20;;
9904;SDS011;4991;43.566;27.820;2022-12-07T08:04:42;0.20;;;0.20;;
9904;SDS011;4991;43.566;27.820;2022-12-07T08:07:08;0.20;;;0.20;;
9904;SDS011;4991;43.566;27.820;2022-12-07T08:09:34;0.20;;;0.20;;
9904;SDS011;4991;43.566;27.820;2022-12-07T08:11:59;0.20;;;0.20;;
9904;SDS011;4991;43.566;27.820;2022-12-07T08:14:25;0.20;;;0.20;;
9904;SDS011;4991;43.566;27.820;2022-12-07T08:16:52;0.20;;;0.20;;
9904;SDS011;4991;43.566;27.820;2022-12-07T08:19:18;0.20;;;0.20;;
9904;SDS011;4991;43.566;27.820;2022-12-07T08:21:44;0.20;;;0.20;;
9904;SDS011;4991;43.566;27.820;2022-12-07T08:24:09;0.80;;;0.80;;
9904;SDS011;4991;43.566;27.820;2022-12-07T08:26:35;0.20;;;0.20;;
9904;SDS011;4991;43.566;27.820;2022-12-07T08:29:01;0.10;;;0.10;;
9904;SDS011;4991;43.566;27.820;2022-12-07T08:31:27;0.20;;;0.20;;
9904;SDS011;4991;43.566;27.820;2022-12-07T08:33:54;0.10;;;0.10;;
9904;SDS011;4991;43.566;27.820;2022-12-07T08:36:20;0.10;;;0.10;;
9904;SDS011;4991;43.566;27.820;2022-12-07T08:38:46;0.10;;;0.10;;
9904;SDS011;4991;43.566;27.820;2022-12-07T08:41:12;0.13;;;0.13;;
9904;SDS011;4991;43.566;27.820;2022-12-07T08:43:38;0.10;;;0.10;;
9904;SDS011;4991;43.566;27.820;2022-12-07T08:48:46;0.10;;;0.10;;
9904;SDS011;4991;43.566;27.820;2022-12-07T08:51:27;0.13;;;0.13;;
9904;SDS011;4991;43.566;27.820;2022-12-07T08:53:53;0.10;;;0.10;;
9904;SDS011;4991;43.566;27.820;2022-12-07T08:56:21;0.20;;;0.20;;
9904;SDS011;4991;43.566;27.820;2022-12-07T08:58:46;0.10;;;0.10;;
9904;SDS011;4991;43.566;27.820;2022-12-07T09:01:13;0.20;;;0.20;;
9904;SDS011;4991;43.566;27.820;2022-12-07T09:03:39;0.10;;;0.10;;
9904;SDS011;4991;43.566;27.820;2022-12-07T09:06:05;0.77;;;0.77;;
9904;SDS011;4991;43.566;27.820;2022-12-07T09:08:33;0.20;;;0.20;;
9904;SDS011;4991;43.566;27.820;2022-12-07T09:11:02;0.20;;;0.20;;
9904;SDS011;4991;43.566;27.820;2022-12-07T09:13:28;0.10;;;0.10;;
9904;SDS011;4991;43.566;27.820;2022-12-07T09:15:53;0.20;;;0.20;;
9904;SDS011;4991;43.566;27.820;2022-12-07T09:18:19;0.10;;;0.10;;
9904;SDS011;4991;43.566;27.820;2022-12-07T09:20:45;0.30;;;0.30;;
9904;SDS011;4991;43.566;27.820;2022-12-07T09:23:10;0.30;;;0.30;;
9904;SDS011;4991;43.566;27.820;2022-12-07T09:25:36;0.20;;;0.20;;
9904;SDS011;4991;43.566;27.820;2022-12-07T09:28:01;0.10;;;0.10;;
9904;SDS011;4991;43.566;27.820;2022-12-07T09:30:27;0.13;;;0.13;;
9904;SDS011;4991;43.566;27.820;2022-12-07T09:32:54;0.20;;;0.20;;
9904;SDS011;4991;43.566;27.820;2022-12-07T09:35:20;0.20;;;0.20;;
9904;SDS011;4991;43.566;27.820;2022-12-07T09:37:46;0.20;;;0.20;;
9904;SDS011;4991;43.566;27.820;2022-12-07T09:40:12;0.20;;;0.20;;
9904;SDS011;4991;43.566;27.820;2022-12-07T09:42:41;0.20;;;0.20;;
9904;SDS011;4991;43.566;27.820;2022-12-07T09:45:12;0.20;;;0.20;;
9904;SDS011;4991;43.566;27.820;2022-12-07T09:47:44;0.20;;;0.20;;
9904;SDS011;4991;43.566;27.820;2022-12-07T09:50:14;0.20;;;0.20;;
9904;SDS011;4991;43.566;27.820;2022-12-07T09:52:43;0.50;;;0.50;;
9904;SDS011;4991;43.566;27.820;2022-12-07T09:55:15;0.20;;;0.20;;
9904;SDS011;4991;43.566;27.820;2022-12-07T09:57:44;0.20;;;0.20;;
9904;SDS011;4991;43.566;27.820;2022-12-07T10:00:12;0.20;;;0.20;;
9904;SDS011;4991;43.566;27.820;2022-12-07T10:02:44;0.20;;;0.20;;
9904;SDS011;4991;43.566;27.820;2022-12-07T10:05:31;0.50;;;0.50;;
9904;SDS011;4991;43.566;27.820;2022-12-07T10:08:01;0.20;;;0.20;;
9904;SDS011;4991;43.566;27.820;2022-12-07T10:10:31;0.20;;;0.20;;
9904;SDS011;4991;43.566;27.820;2022-12-07T10:13:02;0.20;;;0.20;;
9904;SDS011;4991;43.566;27.820;2022-12-07T10:15:50;0.20;;;0.20;;
9904;SDS011;4991;43.566;27.820;2022-12-07T10:21:09;0.23;;;0.23;;
9904;SDS011;4991;43.566;27.820;2022-12-07T10:23:36;0.20;;;0.20;;
9904;SDS011;4991;43.566;27.820;2022-12-07T10:26:19;0.20;;;0.20;;
9904;SDS011;4991;43.566;27.820;2022-12-07T10:28:51;0.20;;;0.20;;
9904;SDS011;4991;43.566;27.820;2022-12-07T10:31:19;0.20;;;0.20;;
9904;SDS011;4991;43.566;27.820;2022-12-07T10:33:52;0.20;;;0.20;;
9904;SDS011;4991;43.566;27.820;2022-12-07T10:39:02;0.20;;;0.20;;
9904;SDS011;4991;43.566;27.820;2022-12-07T10:41:35;0.20;;;0.20;;
9904;SDS011;4991;43.566;27.820;2022-12-07T10:44:24;0.20;;;0.20;;
9904;SDS011;4991;43.566;27.820;2022-12-07T10:55:46;1.07;;;1.07;;
9904;SDS011;4991;43.566;27.820;2022-12-07T11:11:58;0.20;;;0.20;;
9904;SDS011;4991;43.566;27.820;2022-12-07T11:17:20;0.40;;;0.40;;
9904;SDS011;4991;43.566;27.820;2022-12-07T11:26:14;0.20;;;0.20;;
9904;SDS011;4991;43.566;27.820;2022-12-07T11:34:48;0.20;;;0.20;;
9904;SDS011;4991;43.566;27.820;2022-12-07T11:37:35;3.57;;;3.40;;
9904;SDS011;4991;43.566;27.820;2022-12-07T11:43:01;0.20;;;0.20;;
9904;SDS011;4991;43.566;27.820;2022-12-07T11:45:37;0.20;;;0.20;;
9904;SDS011;4991;43.566;27.820;2022-12-07T11:48:17;0.30;;;0.30;;
9904;SDS011;4991;43.566;27.820;2022-12-07T11:50:56;0.20;;;0.20;;
9904;SDS011;4991;43.566;27.820;2022-12-07T12:06:37;1.20;;;1.13;;
9904;SDS011;4991;43.566;27.820;2022-12-07T12:09:04;0.20;;;0.20;;
9904;SDS011;4991;43.566;27.820;2022-12-07T12:14:17;0.20;;;0.20;;
9904;SDS011;4991;43.566;27.820;2022-12-07T12:19:45;0.20;;;0.20;;
9904;SDS011;4991;43.566;27.820;2022-12-07T12:25:45;1.33;;;1.33;;
9904;SDS011;4991;43.566;27.820;2022-12-07T12:33:53;0.20;;;0.20;;
9904;SDS011;4991;43.566;27.820;2022-12-07T12:36:25;0.20;;;0.20;;
9904;SDS011;4991;43.566;27.820;2022-12-07T12:47:00;0.20;;;0.20;;
9904;SDS011;4991;43.566;27.820;2022-12-07T12:49:43;0.20;;;0.20;;
9904;SDS011;4991;43.566;27.820;2022-12-07T12:57:32;0.30;;;0.30;;
9904;SDS011;4991;43.566;27.820;2022-12-07T12:59:59;10.47;;;6.93;;
9904;SDS011;4991;43.566;27.820;2022-12-07T13:02:29;25.93;;;16.23;;
9904;SDS011;4991;43.566;27.820;2022-12-07T13:13:05;31.07;;;17.23;;
9904;SDS011;4991;43.566;27.820;2022-12-07T13:20:56;32.90;;;16.53;;
9904;SDS011;4991;43.566;27.820;2022-12-07T13:26:18;27.57;;;16.97;;
9904;SDS011;4991;43.566;27.820;2022-12-07T13:36:54;21.80;;;13.43;;
9904;SDS011;4991;43.566;27.820;2022-12-07T13:39:22;23.87;;;15.67;;
9904;SDS011;4991;43.566;27.820;2022-12-07T13:41:50;21.50;;;13.20;;
9904;SDS011;4991;43.566;27.820;2022-12-07T13:44:18;22.07;;;12.83;;
9904;SDS011;4991;43.566;27.820;2022-12-07T13:49:32;23.97;;;13.83;;
9904;SDS011;4991;43.566;27.820;2022-12-07T13:52:13;23.13;;;14.80;;
9904;SDS011;4991;43.566;27.820;2022-12-07T13:54:43;21.27;;;13.50;;
9904;SDS011;4991;43.566;27.820;2022-12-07T13:57:22;28.10;;;16.03;;
9904;SDS011;4991;43.566;27.820;2022-12-07T13:59:50;20.83;;;13.10;;
9904;SDS011;4991;43.566;27.820;2022-12-07T14:02:21;25.90;;;16.10;;
9904;SDS011;4991;43.566;27.820;2022-12-07T14:04:51;23.47;;;15.47;;
9904;SDS011;4991;43.566;27.820;2022-12-07T14:09:58;25.03;;;16.47;;
9904;SDS011;4991;43.566;27.820;2022-12-07T14:12:26;29.47;;;17.30;;
9904;SDS011;4991;43.566;27.820;2022-12-07T14:14:54;37.10;;;19.33;;
9904;SDS011;4991;43.566;27.820;2022-12-07T14:17:21;37.90;;;22.03;;
9904;SDS011;4991;43.566;27.820;2022-12-07T14:19:56;34.57;;;19.10;;
9904;SDS011;4991;43.566;27.820;2022-12-07T14:25:22;33.27;;;20.10;;
9904;SDS011;4991;43.566;27.820;2022-12-07T14:30:21;39.83;;;23.00;;
9904;SDS011;4991;43.566;27.820;2022-12-07T14:32:57;37.00;;;23.13;;
9904;SDS011;4991;43.566;27.820;2022-12-07T14:35:27;39.03;;;21.47;;
9904;SDS011;4991;43.566;27.820;2022-12-07T14:37:54;34.23;;;21.87;;
9904;SDS011;4991;43.566;27.820;2022-12-07T14:40:21;55.77;;;26.20;;
9904;SDS011;4991;43.566;27.820;2022-12-07T14:42:51;39.37;;;24.90;;
9904;SDS011;4991;43.566;27.820;2022-12-07T14:45:21;44.97;;;26.97;;
9904;SDS011;4991;43.566;27.820;2022-12-07T14:47:47;47.30;;;27.77;;
9904;SDS011;4991;43.566;27.820;2022-12-07T14:50:14;44.80;;;26.77;;
9904;SDS011;4991;43.566;27.820;2022-12-07T14:52:42;44.47;;;27.03;;
9904;SDS011;4991;43.566;27.820;2022-12-07T14:55:29;40.43;;;27.00;;
9904;SDS011;4991;43.566;27.820;2022-12-07T14:57:56;42.73;;;27.07;;
9904;SDS011;4991;43.566;27.820;2022-12-07T15:00:24;52.53;;;29.27;;
9904;SDS011;4991;43.566;27.820;2022-12-07T15:02:53;61.27;;;33.57;;
9904;SDS011;4991;43.566;27.820;2022-12-07T15:05:19;54.47;;;32.30;;
9904;SDS011;4991;43.566;27.820;2022-12-07T15:07:46;64.43;;;38.17;;
9904;SDS011;4991;43.566;27.820;2022-12-07T15:12:45;70.50;;;33.47;;
9904;SDS011;4991;43.566;27.820;2022-12-07T15:15:11;50.53;;;27.17;;
9904;SDS011;4991;43.566;27.820;2022-12-07T15:17:37;60.37;;;34.53;;
9904;SDS011;4991;43.566;27.820;2022-12-07T15:20:04;88.03;;;38.13;;
9904;SDS011;4991;43.566;27.820;2022-12-07T15:22:31;62.77;;;34.33;;
9904;SDS011;4991;43.566;27.820;2022-12-07T15:24:57;56.27;;;33.97;;
9904;SDS011;4991;43.566;27.820;2022-12-07T15:27:23;65.40;;;33.20;;
9904;SDS011;4991;43.566;27.820;2022-12-07T15:29:49;60.43;;;36.80;;
9904;SDS011;4991;43.566;27.820;2022-12-07T15:32:14;80.07;;;40.37;;
9904;SDS011;4991;43.566;27.820;2022-12-07T15:34:40;58.90;;;34.70;;
9904;SDS011;4991;43.566;27.820;2022-12-07T15:37:06;73.77;;;38.37;;
9904;SDS011;4991;43.566;27.820;2022-12-07T15:39:33;70.37;;;36.33;;
9904;SDS011;4991;43.566;27.820;2022-12-07T15:41:58;66.13;;;35.77;;
9904;SDS011;4991;43.566;27.820;2022-12-07T15:44:24;74.80;;;40.90;;
9904;SDS011;4991;43.566;27.820;2022-12-07T15:47:08;65.83;;;38.47;;
9904;SDS011;4991;43.566;27.820;2022-12-07T15:49:33;59.43;;;35.80;;
9904;SDS011;4991;43.566;27.820;2022-12-07T15:51:59;60.90;;;37.83;;
9904;SDS011;4991;43.566;27.820;2022-12-07T15:54:26;65.73;;;40.53;;
9904;SDS011;4991;43.566;27.820;2022-12-07T15:56:53;74.93;;;39.07;;
9904;SDS011;4991;43.566;27.820;2022-12-07T15:59:20;78.40;;;39.77;;
9904;SDS011;4991;43.566;27.820;2022-12-07T16:01:47;99.87;;;41.27;;
9904;SDS011;4991;43.566;27.820;2022-12-07T16:04:13;80.83;;;39.83;;
9904;SDS011;4991;43.566;27.820;2022-12-07T16:06:39;71.73;;;39.87;;
9904;SDS011;4991;43.566;27.820;2022-12-07T16:09:04;83.73;;;42.70;;
9904;SDS011;4991;43.566;27.820;2022-12-07T16:11:31;100.83;;;47.57;;
9904;SDS011;4991;43.566;27.820;2022-12-07T16:13:58;86.17;;;46.90;;
9904;SDS011;4991;43.566;27.820;2022-12-07T16:16:23;102.13;;;50.63;;
9904;SDS011;4991;43.566;27.820;2022-12-07T16:18:49;86.17;;;43.60;;
9904;SDS011;4991;43.566;27.820;2022-12-07T16:21:17;82.67;;;46.03;;
9904;SDS011;4991;43.566;27.820;2022-12-07T16:23:43;91.67;;;47.27;;
9904;SDS011;4991;43.566;27.820;2022-12-07T16:26:17;79.33;;;47.93;;
9904;SDS011;4991;43.566;27.820;2022-12-07T16:28:44;101.43;;;52.80;;
9904;SDS011;4991;43.566;27.820;2022-12-07T16:31:14;112.07;;;52.87;;
9904;SDS011;4991;43.566;27.820;2022-12-07T16:33:42;109.70;;;51.73;;
9904;SDS011;4991;43.566;27.820;2022-12-07T16:36:09;109.03;;;56.27;;
9904;SDS011;4991;43.566;27.820;2022-12-07T16:38:36;97.83;;;56.37;;
9904;SDS011;4991;43.566;27.820;2022-12-07T16:41:02;101.00;;;54.83;;
9904;SDS011;4991;43.566;27.820;2022-12-07T16:43:28;97.87;;;51.40;;
9904;SDS011;4991;43.566;27.820;2022-12-07T16:45:54;95.77;;;56.03;;
9904;SDS011;4991;43.566;27.820;2022-12-07T16:48:19;108.77;;;62.17;;
9904;SDS011;4991;43.566;27.820;2022-12-07T16:50:46;105.20;;;60.80;;
9904;SDS011;4991;43.566;27.820;2022-12-07T16:53:12;93.20;;;57.20;;
9904;SDS011;4991;43.566;27.820;2022-12-07T16:55:40;100.33;;;56.27;;
9904;SDS011;4991;43.566;27.820;2022-12-07T16:58:08;89.17;;;53.83;;
9904;SDS011;4991;43.566;27.820;2022-12-07T17:00:35;80.23;;;49.27;;
9904;SDS011;4991;43.566;27.820;2022-12-07T17:03:01;78.00;;;47.73;;
9904;SDS011;4991;43.566;27.820;2022-12-07T17:05:28;75.93;;;48.10;;
9904;SDS011;4991;43.566;27.820;2022-12-07T17:07:54;74.60;;;50.20;;
9904;SDS011;4991;43.566;27.820;2022-12-07T17:10:21;93.77;;;57.40;;
9904;SDS011;4991;43.566;27.820;2022-12-07T17:12:48;92.00;;;58.73;;
9904;SDS011;4991;43.566;27.820;2022-12-07T17:15:14;85.77;;;57.13;;
9904;SDS011;4991;43.566;27.820;2022-12-07T17:18:00;89.90;;;58.40;;
9904;SDS011;4991;43.566;27.820;2022-12-07T17:20:26;88.77;;;53.57;;
9904;SDS011;4991;43.566;27.820;2022-12-07T17:22:52;82.27;;;51.17;;
9904;SDS011;4991;43.566;27.820;2022-12-07T17:25:18;65.83;;;44.60;;
9904;SDS011;4991;43.566;27.820;2022-12-07T17:27:45;68.40;;;45.57;;
9904;SDS011;4991;43.566;27.820;2022-12-07T17:30:11;61.07;;;41.47;;
9904;SDS011;4991;43.566;27.820;2022-12-07T17:32:38;61.70;;;39.37;;
9904;SDS011;4991;43.566;27.820;2022-12-07T17:35:04;61.30;;;42.53;;
9904;SDS011;4991;43.566;27.820;2022-12-07T17:37:32;71.83;;;45.67;;
9904;SDS011;4991;43.566;27.820;2022-12-07T17:39:58;69.60;;;43.13;;
9904;SDS011;4991;43.566;27.820;2022-12-07T17:42:26;69.00;;;43.87;;
9904;SDS011;4991;43.566;27.820;2022-12-07T17:45:07;62.27;;;39.20;;